createdAt,value
2022-09-16T00:02:06.585Z,8.95
2022-09-16T00:04:41.381Z,10.98
2022-09-16T00:07:14.804Z,9.65
2022-09-16T00:09:48.081Z,9.98
2022-09-16T00:12:21.577Z,11.08
2022-09-16T00:14:56.304Z,10.95
2022-09-16T00:17:31.203Z,9.85
2022-09-16T00:20:05.010Z,9.38
2022-09-16T00:22:38.415Z,9.25
2022-09-16T00:25:12.485Z,10.10
2022-09-16T00:27:45.911Z,10.20
2022-09-16T00:30:19.658Z,9.78
2022-09-16T00:32:54.263Z,10.28
2022-09-16T00:35:27.896Z,10.30
2022-09-16T00:38:01.259Z,9.78
2022-09-16T00:40:34.718Z,9.70
2022-09-16T00:43:11.423Z,8.18
2022-09-16T00:45:47.994Z,9.65
2022-09-16T00:48:25.178Z,9.65
2022-09-16T00:51:01.564Z,10.90
2022-09-16T00:53:42.721Z,11.10
2022-09-16T00:58:48.926Z,10.38
2022-09-16T01:01:23.740Z,9.33
2022-09-16T01:03:59.759Z,9.90
2022-09-16T01:06:35.428Z,10.30
2022-09-16T01:09:08.869Z,10.93
2022-09-16T01:11:42.367Z,12.03
2022-09-16T01:14:34.518Z,11.18
2022-09-16T01:17:11.093Z,8.93
2022-09-16T01:19:55.374Z,10.48
2022-09-16T01:22:38.349Z,9.40
2022-09-16T01:25:16.060Z,8.65
2022-09-16T01:28:12.562Z,10.05
2022-09-16T01:30:59.460Z,10.13
2022-09-16T01:33:37.930Z,8.73
2022-09-16T01:36:19.656Z,10.38
2022-09-16T01:39:00.413Z,8.40
2022-09-16T01:41:36.703Z,10.30
2022-09-16T01:44:13.003Z,10.48
2022-09-16T01:46:49.300Z,10.05
2022-09-16T01:49:25.172Z,10.40
2022-09-16T01:52:01.387Z,12.58
2022-09-16T01:54:37.718Z,11.30
2022-09-16T01:57:14.488Z,12.20
2022-09-16T01:59:51.000Z,11.68
2022-09-16T02:02:27.350Z,11.15
2022-09-16T02:05:03.812Z,11.03
2022-09-16T02:07:40.106Z,11.97
2022-09-16T02:10:17.392Z,10.70
2022-09-16T02:12:53.653Z,14.00
2022-09-16T02:15:29.458Z,11.68
2022-09-16T02:18:11.990Z,10.35
2022-09-16T02:20:48.166Z,11.33
2022-09-16T02:23:24.440Z,11.30
2022-09-16T02:25:59.500Z,11.68
2022-09-16T02:28:36.210Z,10.78
2022-09-16T02:31:11.542Z,11.05
2022-09-16T02:33:47.691Z,10.85
2022-09-16T02:36:23.949Z,11.73
2022-09-16T02:39:00.301Z,10.43
2022-09-16T02:41:33.667Z,10.55
2022-09-16T02:44:07.194Z,10.28
2022-09-16T02:46:43.858Z,11.00
2022-09-16T02:49:20.474Z,9.93
2022-09-16T02:51:57.636Z,9.90
2022-09-16T02:54:36.643Z,12.73
2022-09-16T02:57:11.011Z,8.25
2022-09-16T02:59:45.703Z,10.32
2022-09-16T03:02:19.386Z,10.53
2022-09-16T03:04:52.818Z,11.18
2022-09-16T03:07:26.194Z,11.12
2022-09-16T03:10:00.222Z,12.05
2022-09-16T03:12:49.729Z,10.25
2022-09-16T03:15:34.336Z,10.50
2022-09-16T03:21:22.075Z,11.80
2022-09-16T03:24:00.576Z,10.32
2022-09-16T03:26:36.774Z,10.53
2022-09-16T03:29:15.980Z,10.23
2022-09-16T03:31:52.884Z,11.03
2022-09-16T03:34:30.012Z,11.43
2022-09-16T03:37:06.390Z,10.47
2022-09-16T03:39:40.680Z,10.82
2022-09-16T03:42:15.244Z,10.98
2022-09-16T03:44:48.600Z,11.22
2022-09-16T03:47:21.843Z,10.78
2022-09-16T03:49:55.631Z,9.60
2022-09-16T03:52:28.847Z,10.10
2022-09-16T03:55:01.948Z,12.18
2022-09-16T03:57:35.807Z,10.48
2022-09-16T04:00:19.366Z,11.33
2022-09-16T04:03:04.386Z,11.20
2022-09-16T04:05:37.646Z,11.40
2022-09-16T04:08:31.298Z,9.78
2022-09-16T04:11:06.598Z,11.88
2022-09-16T04:16:34.650Z,9.38
2022-09-16T04:19:14.035Z,10.15
2022-09-16T04:21:58.872Z,10.85
2022-09-16T04:24:36.676Z,11.50
2022-09-16T04:27:10.433Z,10.38
2022-09-16T04:29:43.594Z,11.08
2022-09-16T04:32:16.969Z,10.15
2022-09-16T04:34:50.219Z,11.70
2022-09-16T04:37:23.304Z,13.72
2022-09-16T04:39:58.950Z,10.93
2022-09-16T04:42:31.444Z,11.75
2022-09-16T04:45:04.899Z,11.57
2022-09-16T04:47:38.144Z,12.07
2022-09-16T04:50:12.436Z,10.95
2022-09-16T04:52:46.298Z,10.38
2022-09-16T04:55:23.145Z,12.05
2022-09-16T04:57:56.279Z,9.65
2022-09-16T05:00:29.485Z,9.23
2022-09-16T05:03:02.738Z,9.83
2022-09-16T05:05:36.189Z,11.78
2022-09-16T05:08:10.170Z,11.63
2022-09-16T05:10:43.460Z,11.28
2022-09-16T05:13:16.907Z,11.85
2022-09-16T05:15:51.237Z,11.70
2022-09-16T05:18:25.339Z,12.40
2022-09-16T05:21:01.361Z,12.00
2022-09-16T05:23:34.797Z,12.07
2022-09-16T05:26:12.982Z,12.37
2022-09-16T05:28:46.911Z,11.40
2022-09-16T05:31:22.437Z,13.40
2022-09-16T05:33:58.907Z,12.13
2022-09-16T05:36:33.695Z,9.85
2022-09-16T05:39:24.819Z,11.55
2022-09-16T05:41:42.989Z,12.13
2022-09-16T05:44:16.195Z,12.20
2022-09-16T05:46:50.560Z,11.73
2022-09-16T05:49:24.515Z,10.23
2022-09-16T05:51:57.659Z,12.63
2022-09-16T05:54:35.424Z,11.00
2022-09-16T05:57:08.888Z,12.70
2022-09-16T05:59:43.189Z,13.20
2022-09-16T06:02:16.769Z,11.95
2022-09-16T06:04:51.657Z,12.82
2022-09-16T06:07:25.760Z,12.90
2022-09-16T06:10:02.359Z,12.07
2022-09-16T06:12:38.055Z,13.80
2022-09-16T06:15:13.653Z,11.00
2022-09-16T06:17:47.916Z,12.65
2022-09-16T06:20:23.036Z,13.85
2022-09-16T06:22:56.220Z,14.03
2022-09-16T06:25:29.356Z,13.98
2022-09-16T06:28:02.297Z,13.83
2022-09-16T06:30:35.490Z,10.05
2022-09-16T06:33:10.800Z,13.72
2022-09-16T06:35:43.818Z,12.90
2022-09-16T06:38:16.693Z,14.33
2022-09-16T06:40:50.629Z,13.55
2022-09-16T06:43:23.512Z,14.23
2022-09-16T06:46:00.558Z,14.15
2022-09-16T06:48:35.129Z,14.00
2022-09-16T06:51:10.888Z,12.55
2022-09-16T06:53:45.176Z,12.65
2022-09-16T06:56:20.640Z,13.40
2022-09-16T06:58:56.016Z,12.30
2022-09-16T07:01:31.832Z,13.53
2022-09-16T07:04:08.326Z,13.53
2022-09-16T07:09:16.179Z,13.75
2022-09-16T07:11:49.035Z,12.82
2022-09-16T07:14:22.025Z,12.85
2022-09-16T07:16:55.324Z,14.03
2022-09-16T07:19:28.984Z,14.00
2022-09-16T07:22:02.138Z,13.03
2022-09-16T07:24:35.299Z,12.50
2022-09-16T07:27:08.618Z,13.58
2022-09-16T07:29:41.803Z,13.38
2022-09-16T07:32:15.727Z,12.60
2022-09-16T07:34:48.844Z,14.63
2022-09-16T07:37:22.210Z,13.98
2022-09-16T07:39:55.363Z,15.45
2022-09-16T07:42:30.367Z,15.30
2022-09-16T07:45:07.095Z,15.18
2022-09-16T07:47:40.259Z,14.75
2022-09-16T07:50:13.833Z,14.07
2022-09-16T07:52:47.197Z,14.70
2022-09-16T07:55:20.849Z,13.48
2022-09-16T07:57:55.487Z,14.63
2022-09-16T08:00:28.803Z,11.05
2022-09-16T08:03:02.067Z,11.73
2022-09-16T08:05:36.308Z,13.70
2022-09-16T08:08:09.487Z,11.93
2022-09-16T08:10:43.689Z,12.90
2022-09-16T08:13:16.828Z,12.40
2022-09-16T08:15:50.049Z,11.65
2022-09-16T08:18:23.589Z,12.95
2022-09-16T08:20:56.657Z,13.88
2022-09-16T08:23:31.437Z,13.08
2022-09-16T08:26:05.400Z,12.70
2022-09-16T08:28:50.880Z,12.93
2022-09-16T08:31:16.914Z,13.43
2022-09-16T08:33:50.137Z,14.87
2022-09-16T08:36:25.027Z,11.97
2022-09-16T08:38:59.534Z,12.45
2022-09-16T08:41:55.394Z,13.18
2022-09-16T08:44:33.347Z,13.15
2022-09-16T08:47:10.659Z,13.78
2022-09-16T08:49:46.737Z,12.88
2022-09-16T08:52:23.333Z,9.00
2022-09-16T08:54:59.947Z,11.15
2022-09-16T08:57:37.574Z,12.07
2022-09-16T09:00:16.761Z,13.03
2022-09-16T09:02:54.679Z,11.05
2022-09-16T09:05:33.180Z,13.38
2022-09-16T09:08:16.273Z,13.43
2022-09-16T09:10:53.653Z,11.60
2022-09-16T09:16:47.402Z,13.10
2022-09-16T09:19:32.465Z,12.07
2022-09-16T09:22:09.214Z,12.15
2022-09-16T09:24:56.773Z,11.50
2022-09-16T09:27:34.149Z,11.35
2022-09-16T09:30:14.267Z,11.65
2022-09-16T09:33:02.328Z,11.48
2022-09-16T09:35:50.683Z,10.00
2022-09-16T09:38:49.640Z,9.70
2022-09-16T09:44:35.933Z,11.95
2022-09-16T09:47:12.650Z,10.60
2022-09-16T09:49:48.221Z,11.57
2022-09-16T09:52:24.974Z,9.85
2022-09-16T09:55:00.146Z,10.58
2022-09-16T09:57:38.049Z,8.88
2022-09-16T10:00:18.481Z,8.88
2022-09-16T10:02:51.785Z,9.13
2022-09-16T10:05:27.487Z,7.10
2022-09-16T10:08:03.980Z,7.62
2022-09-16T10:10:39.657Z,7.08
2022-09-16T10:13:14.648Z,8.73
2022-09-16T10:15:53.316Z,6.95
2022-09-16T10:18:30.035Z,7.95
2022-09-16T10:21:07.936Z,8.08
2022-09-16T10:26:24.613Z,8.95
2022-09-16T10:29:00.800Z,7.75
2022-09-16T10:31:38.337Z,7.97
2022-09-16T10:34:19.199Z,8.53
2022-09-16T10:37:01.731Z,10.55
2022-09-16T10:39:35.694Z,9.03
2022-09-16T10:42:18.610Z,6.55
2022-09-16T10:44:52.967Z,8.15
2022-09-16T10:47:29.657Z,8.53
2022-09-16T10:50:05.882Z,6.60
2022-09-16T10:52:46.072Z,8.68
2022-09-16T10:55:32.699Z,8.55
2022-09-16T10:58:15.225Z,7.08
2022-09-16T11:00:52.471Z,7.55
2022-09-16T11:04:05.313Z,5.55
2022-09-16T11:06:53.433Z,7.28
2022-09-16T11:09:31.898Z,7.45
2022-09-16T11:12:30.922Z,6.42
2022-09-16T11:15:07.854Z,7.65
2022-09-16T11:17:49.560Z,5.33
2022-09-16T11:21:02.371Z,4.55
2022-09-16T11:26:21.704Z,6.05
2022-09-16T11:29:09.771Z,6.97
2022-09-16T11:31:48.746Z,6.92
2022-09-16T11:34:29.513Z,6.78
2022-09-16T11:37:09.574Z,7.47
2022-09-16T11:39:54.300Z,7.35
2022-09-16T11:42:32.008Z,7.60
2022-09-16T11:45:18.322Z,6.42
2022-09-16T11:48:02.457Z,7.95
2022-09-16T11:50:44.063Z,8.68
2022-09-16T11:53:48.642Z,8.00
2022-09-16T11:56:25.208Z,6.62
2022-09-16T11:59:01.754Z,7.72
2022-09-16T12:01:38.563Z,8.38
2022-09-16T12:04:16.032Z,7.47
2022-09-16T12:06:55.099Z,8.28
2022-09-16T12:09:32.148Z,8.93
2022-09-16T12:12:12.834Z,8.35
2022-09-16T12:14:50.016Z,8.45
2022-09-16T12:17:26.415Z,7.30
2022-09-16T12:20:03.089Z,7.80
2022-09-16T12:22:39.972Z,7.85
2022-09-16T12:25:16.709Z,7.23
2022-09-16T12:27:53.104Z,7.40
2022-09-16T12:30:29.352Z,9.10
2022-09-16T12:33:07.547Z,8.03
2022-09-16T12:35:43.401Z,7.72
2022-09-16T12:38:20.074Z,8.33
2022-09-16T12:41:01.383Z,8.23
2022-09-16T12:44:11.180Z,10.32
2022-09-16T12:50:24.689Z,9.38
2022-09-16T12:53:21.113Z,8.20
2022-09-16T12:56:02.422Z,7.87
2022-09-16T12:58:58.513Z,7.80
2022-09-16T13:01:35.119Z,8.85
2022-09-16T13:04:12.806Z,8.40
2022-09-16T13:06:51.984Z,8.50
2022-09-16T13:09:27.652Z,8.50
2022-09-16T13:17:13.950Z,5.97
2022-09-16T13:19:52.299Z,6.62
2022-09-16T13:22:28.414Z,7.17
2022-09-16T13:25:07.120Z,7.40
2022-09-16T13:27:44.282Z,8.03
2022-09-16T13:30:29.746Z,7.90
2022-09-16T13:33:30.388Z,7.08
2022-09-16T13:36:20.637Z,8.80
2022-09-16T13:38:56.105Z,8.68
2022-09-16T13:41:35.638Z,8.83
2022-09-16T13:47:15.670Z,6.97
2022-09-16T13:49:52.514Z,8.40
2022-09-16T13:52:28.347Z,7.78
2022-09-16T13:55:11.789Z,8.65
2022-09-16T13:57:59.349Z,7.22
2022-09-16T14:00:36.351Z,7.50
2022-09-16T14:03:29.153Z,9.78
2022-09-16T14:06:25.764Z,9.55
2022-09-16T14:09:02.742Z,10.00
2022-09-16T14:11:39.756Z,10.82
2022-09-16T14:14:36.344Z,8.70
2022-09-16T14:16:51.259Z,8.33
2022-09-16T14:19:28.516Z,9.18
2022-09-16T14:22:07.042Z,10.08
2022-09-16T14:24:42.458Z,8.15
2022-09-16T14:27:23.540Z,7.70
2022-09-16T14:30:01.974Z,9.95
2022-09-16T14:32:37.723Z,8.70
2022-09-16T14:35:14.812Z,10.28
2022-09-16T14:37:49.931Z,10.20
2022-09-16T14:40:25.797Z,10.65
2022-09-16T14:43:02.210Z,11.57
2022-09-16T14:45:37.131Z,9.15
2022-09-16T14:48:12.011Z,10.88
2022-09-16T14:50:47.546Z,11.65
2022-09-16T14:53:35.947Z,12.03
2022-09-16T14:59:16.363Z,9.10
2022-09-16T15:01:49.456Z,8.78
2022-09-16T15:04:25.918Z,6.12
2022-09-16T15:07:03.983Z,7.78
2022-09-16T15:09:40.352Z,6.42
2022-09-16T15:12:21.170Z,7.45
2022-09-16T15:14:54.471Z,8.25
2022-09-16T15:17:29.492Z,7.70
2022-09-16T15:20:03.234Z,9.93
2022-09-16T15:22:37.599Z,9.78
2022-09-16T15:25:23.894Z,10.48
2022-09-16T15:28:05.999Z,8.10
2022-09-16T15:30:41.895Z,10.88
2022-09-16T15:33:32.513Z,11.15
2022-09-16T15:36:07.685Z,11.65
2022-09-16T15:38:44.469Z,8.18
2022-09-16T15:41:16.264Z,8.58
2022-09-16T15:43:49.513Z,9.43
2022-09-16T15:46:24.975Z,6.65
2022-09-16T15:49:01.869Z,9.25
2022-09-16T15:51:38.274Z,9.28
2022-09-16T15:54:16.839Z,10.05
2022-09-16T15:56:59.136Z,9.63
2022-09-16T15:59:35.515Z,7.33
2022-09-16T16:02:11.771Z,9.55
2022-09-16T16:04:44.723Z,9.08
2022-09-16T16:07:25.280Z,8.08
2022-09-16T16:09:59.626Z,9.30
2022-09-16T16:12:33.668Z,8.45
2022-09-16T16:15:08.573Z,7.97
2022-09-16T16:17:43.026Z,9.85
2022-09-16T16:20:17.629Z,9.90
2022-09-16T16:22:51.399Z,11.48
2022-09-16T16:25:24.928Z,11.70
2022-09-16T16:27:58.237Z,13.15
2022-09-16T16:30:31.520Z,10.50
2022-09-16T16:33:06.037Z,11.57
2022-09-16T16:35:39.251Z,10.80
2022-09-16T16:38:12.605Z,11.05
2022-09-16T16:40:53.535Z,11.20
2022-09-16T16:43:27.257Z,12.40
2022-09-16T16:46:01.057Z,11.53
2022-09-16T16:48:34.347Z,11.73
2022-09-16T16:51:10.499Z,11.38
2022-09-16T16:53:43.576Z,11.60
2022-09-16T16:56:16.768Z,12.15
2022-09-16T16:58:49.846Z,10.85
2022-09-16T17:01:23.220Z,14.28
2022-09-16T17:03:56.520Z,11.90
2022-09-16T17:06:30.159Z,9.85
2022-09-16T17:09:03.763Z,11.03
2022-09-16T17:11:37.854Z,12.88
2022-09-16T17:14:12.160Z,13.25
2022-09-16T17:16:47.096Z,12.47
2022-09-16T17:19:21.170Z,13.80
2022-09-16T17:21:55.818Z,14.63
2022-09-16T17:24:28.705Z,16.67
2022-09-16T17:27:02.203Z,17.67
2022-09-16T17:29:35.074Z,18.05
2022-09-16T17:32:08.247Z,16.87
2022-09-16T17:34:41.610Z,18.50
2022-09-16T17:37:15.398Z,19.57
2022-09-16T17:39:49.773Z,14.05
2022-09-16T17:42:22.887Z,16.35
2022-09-16T17:44:55.830Z,14.53
2022-09-16T17:47:28.940Z,17.27
2022-09-16T17:50:04.246Z,15.60
2022-09-16T17:52:37.072Z,16.57
2022-09-16T17:55:11.041Z,12.93
2022-09-16T17:57:43.995Z,12.88
2022-09-16T18:00:19.093Z,13.93
2022-09-16T18:02:52.211Z,13.72
2022-09-16T18:05:30.081Z,14.43
2022-09-16T18:08:02.485Z,15.55
2022-09-16T18:10:35.460Z,12.43
2022-09-16T18:13:09.877Z,13.32
2022-09-16T18:15:42.989Z,11.93
2022-09-16T18:18:19.757Z,15.48
2022-09-16T18:20:57.016Z,13.75
2022-09-16T18:23:30.219Z,12.58
2022-09-16T18:26:07.716Z,14.53
2022-09-16T18:29:07.940Z,13.25
2022-09-16T18:31:23.272Z,14.07
2022-09-16T18:33:57.841Z,14.07
2022-09-16T18:36:32.898Z,15.05
2022-09-16T18:39:07.903Z,15.93
2022-09-16T18:41:42.609Z,14.63
2022-09-16T18:44:20.038Z,15.48
2022-09-16T18:46:53.597Z,15.75
2022-09-16T18:49:28.091Z,16.70
2022-09-16T18:52:01.703Z,16.25
2022-09-16T18:54:34.843Z,16.05
2022-09-16T18:57:09.406Z,16.82
2022-09-16T18:59:43.704Z,17.15
2022-09-16T19:02:16.844Z,16.62
2022-09-16T19:04:49.916Z,15.93
2022-09-16T19:07:28.092Z,14.80
2022-09-16T19:10:03.395Z,15.93
2022-09-16T19:12:39.240Z,15.80
2022-09-16T19:17:54.649Z,17.23
2022-09-16T19:20:27.725Z,15.08
2022-09-16T19:23:00.875Z,17.42
2022-09-16T19:25:33.956Z,16.73
2022-09-16T19:28:09.895Z,15.55
2022-09-16T19:30:43.229Z,16.23
2022-09-16T19:48:18.930Z,16.57
2022-09-16T19:50:54.397Z,17.55
2022-09-16T19:53:28.553Z,16.65
2022-09-16T19:56:04.282Z,16.48
2022-09-16T19:58:39.121Z,16.48
2022-09-16T20:01:15.026Z,17.98
2022-09-16T20:06:16.415Z,17.12
2022-09-16T20:08:51.445Z,16.07
2022-09-16T20:11:27.536Z,16.65
2022-09-16T20:14:02.043Z,16.85
2022-09-16T20:16:36.899Z,15.13
2022-09-16T20:19:14.742Z,14.45
2022-09-16T20:24:21.452Z,14.15
2022-09-16T20:26:57.767Z,16.37
2022-09-16T20:29:32.082Z,15.93
2022-09-16T20:32:05.620Z,16.87
2022-09-16T20:34:38.801Z,16.35
2022-09-16T20:37:12.087Z,16.60
2022-09-16T20:39:45.850Z,14.78
2022-09-16T20:42:19.271Z,18.05
2022-09-16T20:44:52.165Z,17.12
2022-09-16T20:47:27.302Z,17.35
2022-09-16T20:50:00.339Z,17.10
2022-09-16T20:52:33.929Z,18.95
2022-09-16T20:55:11.787Z,15.75
2022-09-16T20:57:43.943Z,17.48
2022-09-16T21:00:18.108Z,15.55
2022-09-16T21:02:52.399Z,15.58
2022-09-16T21:05:25.334Z,16.30
2022-09-16T21:07:59.549Z,15.60
2022-09-16T21:10:33.735Z,16.62
2022-09-16T21:13:07.178Z,15.95
2022-09-16T21:15:40.175Z,14.78
2022-09-16T21:18:13.104Z,15.30
2022-09-16T21:20:45.922Z,13.93
2022-09-16T21:23:19.051Z,12.75
2022-09-16T21:25:52.063Z,13.90
2022-09-16T21:28:25.374Z,13.68
2022-09-16T21:31:02.880Z,13.70
2022-09-16T21:33:37.754Z,15.40
2022-09-16T21:36:12.947Z,14.23
2022-09-16T21:38:46.882Z,12.15
2022-09-16T21:41:22.308Z,12.43
2022-09-16T21:43:57.370Z,11.80
2022-09-16T21:46:32.684Z,11.43
2022-09-16T21:49:06.874Z,12.60
2022-09-16T21:51:41.361Z,11.15
2022-09-16T21:54:19.891Z,11.43
2022-09-16T21:56:51.999Z,12.65
2022-09-16T21:59:25.142Z,11.57
2022-09-16T22:02:03.517Z,12.63
2022-09-16T22:04:33.822Z,12.82
2022-09-16T22:07:09.010Z,12.40
2022-09-16T22:09:42.386Z,12.15
2022-09-16T22:12:15.530Z,13.10
2022-09-16T22:14:48.557Z,11.90
2022-09-16T22:17:21.968Z,12.03
2022-09-16T22:19:55.092Z,10.90
2022-09-16T22:22:28.810Z,11.45
2022-09-16T22:25:01.856Z,12.90
2022-09-16T22:27:34.962Z,12.73
2022-09-16T22:30:10.656Z,11.30
2022-09-16T22:32:43.744Z,12.10
2022-09-16T22:35:17.059Z,12.25
2022-09-16T22:37:51.645Z,12.50
2022-09-16T22:40:25.281Z,12.68
2022-09-16T22:42:59.419Z,13.13
2022-09-16T22:45:32.528Z,12.25
2022-09-16T22:48:06.066Z,11.95
2022-09-16T22:50:39.331Z,11.25
2022-09-16T22:53:12.667Z,11.97
2022-09-16T22:55:45.973Z,12.82
2022-09-16T22:58:19.116Z,10.78
2022-09-16T23:00:53.236Z,11.38
2022-09-16T23:03:26.449Z,11.95
2022-09-16T23:06:01.691Z,11.68
2022-09-16T23:08:37.143Z,11.55
2022-09-16T23:11:13.409Z,11.83
2022-09-16T23:13:49.049Z,11.73
2022-09-16T23:16:24.424Z,10.00
2022-09-16T23:18:59.718Z,10.58
2022-09-16T23:21:33.449Z,10.40
2022-09-16T23:24:08.743Z,8.95
2022-09-16T23:26:41.900Z,9.70
2022-09-16T23:29:15.995Z,10.38
2022-09-16T23:31:49.165Z,10.28
2022-09-16T23:34:23.701Z,20.45
2022-09-16T23:36:56.867Z,19.42
2022-09-16T23:39:30.381Z,12.78
2022-09-16T23:42:03.525Z,24.63
2022-09-16T23:44:36.610Z,36.45
2022-09-16T23:47:09.713Z,21.15
2022-09-16T23:49:43.463Z,25.62
2022-09-16T23:52:16.555Z,18.32
2022-09-16T23:54:49.629Z,21.25
2022-09-16T23:57:23.042Z,16.77
2022-09-16T23:59:56.271Z,17.05
